sensor_id;sensor_type;location;lat;lon;timestamp;pressure;altitude;pressure_sealevel;temperature;humidity
21203;BME280;10759;51.982;9.232;2023-08-30T00:01:04;99695.63;;;12.27;100.00
21203;BME280;10759;51.982;9.232;2023-08-30T00:03:32;99690.16;;;12.29;100.00
21203;BME280;10759;51.982;9.232;2023-08-30T00:06:02;99648.72;;;12.01;100.00
21203;BME280;10759;51.982;9.232;2023-08-30T00:08:31;99657.66;;;12.01;100.00
21203;BME280;10759;51.982;9.232;2023-08-30T00:11:01;99681.72;;;12.03;100.00
21203;BME280;10759;51.982;9.232;2023-08-30T00:13:32;99674.75;;;12.16;100.00
21203;BME280;10759;51.982;9.232;2023-08-30T00:16:01;99658.69;;;11.99;100.00
21203;BME280;10759;51.982;9.232;2023-08-30T00:18:31;99653.34;;;11.81;100.00
21203;BME280;10759;51.982;9.232;2023-08-30T00:20:58;99661.81;;;11.91;100.00
21203;BME280;10759;51.982;9.232;2023-08-30T00:23:27;99664.56;;;11.90;100.00
21203;BME280;10759;51.982;9.232;2023-08-30T00:25:55;99647.69;;;11.70;100.00
21203;BME280;10759;51.982;9.232;2023-08-30T00:28:24;99642.19;;;11.56;100.00
21203;BME280;10759;51.982;9.232;2023-08-30T00:30:53;99680.44;;;11.77;100.00
21203;BME280;10759;51.982;9.232;2023-08-30T00:33:22;99676.25;;;11.71;100.00
21203;BME280;10759;51.982;9.232;2023-08-30T00:35:58;99673.84;;;11.67;100.00
21203;BME280;10759;51.982;9.232;2023-08-30T00:38:27;99677.44;;;11.66;100.00
21203;BME280;10759;51.982;9.232;2023-08-30T00:40:55;99674.06;;;11.62;100.00
21203;BME280;10759;51.982;9.232;2023-08-30T00:43:25;99619.59;;;11.27;100.00
21203;BME280;10759;51.982;9.232;2023-08-30T00:45:54;99670.69;;;11.58;100.00
21203;BME280;10759;51.982;9.232;2023-08-30T00:48:22;99662.72;;;11.57;100.00
21203;BME280;10759;51.982;9.232;2023-08-30T00:50:53;99669.66;;;11.61;100.00
21203;BME280;10759;51.982;9.232;2023-08-30T00:53:22;99662.72;;;11.57;100.00
21203;BME280;10759;51.982;9.232;2023-08-30T00:55:50;99675.97;;;11.60;100.00
21203;BME280;10759;51.982;9.232;2023-08-30T00:58:19;99674.50;;;11.54;100.00
21203;BME280;10759;51.982;9.232;2023-08-30T01:00:49;99670.22;;;11.50;100.00
21203;BME280;10759;51.982;9.232;2023-08-30T01:03:17;99672.34;;;11.44;100.00
21203;BME280;10759;51.982;9.232;2023-08-30T01:05:47;99664.66;;;11.37;100.00
21203;BME280;10759;51.982;9.232;2023-08-30T01:08:15;99665.56;;;11.36;100.00
21203;BME280;10759;51.982;9.232;2023-08-30T01:10:50;99657.75;;;11.32;100.00
21203;BME280;10759;51.982;9.232;2023-08-30T01:13:21;99638.31;;;11.28;100.00
21203;BME280;10759;51.982;9.232;2023-08-30T01:15:51;99664.41;;;11.42;100.00
21203;BME280;10759;51.982;9.232;2023-08-30T01:18:22;99663.75;;;11.37;100.00
21203;BME280;10759;51.982;9.232;2023-08-30T01:20:52;99662.03;;;11.36;100.00
21203;BME280;10759;51.982;9.232;2023-08-30T01:23:40;99648.25;;;11.26;100.00
21203;BME280;10759;51.982;9.232;2023-08-30T01:26:14;99666.59;;;11.34;100.00
21203;BME280;10759;51.982;9.232;2023-08-30T01:28:46;99665.75;;;11.33;100.00
21203;BME280;10759;51.982;9.232;2023-08-30T01:31:18;99616.47;;;11.01;100.00
21203;BME280;10759;51.982;9.232;2023-08-30T01:33:47;99632.16;;;11.09;100.00
21203;BME280;10759;51.982;9.232;2023-08-30T01:36:17;99658.91;;;11.10;100.00
21203;BME280;10759;51.982;9.232;2023-08-30T01:38:46;99658.75;;;11.13;100.00
21203;BME280;10759;51.982;9.232;2023-08-30T01:41:15;99637.69;;;11.06;100.00
21203;BME280;10759;51.982;9.232;2023-08-30T01:43:45;99666.06;;;11.27;100.00
21203;BME280;10759;51.982;9.232;2023-08-30T01:46:16;99660.72;;;11.27;100.00
21203;BME280;10759;51.982;9.232;2023-08-30T01:48:47;99633.25;;;11.05;100.00
21203;BME280;10759;51.982;9.232;2023-08-30T01:51:17;99663.94;;;11.16;100.00
21203;BME280;10759;51.982;9.232;2023-08-30T01:53:46;99659.38;;;11.18;100.00
21203;BME280;10759;51.982;9.232;2023-08-30T01:56:15;99656.59;;;11.37;100.00
21203;BME280;10759;51.982;9.232;2023-08-30T01:58:43;99650.53;;;11.16;100.00
21203;BME280;10759;51.982;9.232;2023-08-30T02:01:13;99655.09;;;11.32;100.00
21203;BME280;10759;51.982;9.232;2023-08-30T02:03:43;99653.34;;;11.48;100.00
21203;BME280;10759;51.982;9.232;2023-08-30T02:06:16;99536.94;;;10.84;100.00
21203;BME280;10759;51.982;9.232;2023-08-30T02:08:50;99631.91;;;11.31;100.00
21203;BME280;10759;51.982;9.232;2023-08-30T02:11:23;99642.22;;;11.38;100.00
21203;BME280;10759;51.982;9.232;2023-08-30T02:13:57;99634.66;;;11.29;100.00
21203;BME280;10759;51.982;9.232;2023-08-30T02:16:27;99642.88;;;11.26;100.00
21203;BME280;10759;51.982;9.232;2023-08-30T02:18:56;99597.47;;;11.06;100.00
21203;BME280;10759;51.982;9.232;2023-08-30T02:21:25;99642.69;;;11.29;100.00
21203;BME280;10759;51.982;9.232;2023-08-30T02:23:53;99632.88;;;11.12;100.00
21203;BME280;10759;51.982;9.232;2023-08-30T02:26:21;99646.66;;;11.22;100.00
21203;BME280;10759;51.982;9.232;2023-08-30T02:28:49;99639.00;;;11.14;100.00
21203;BME280;10759;51.982;9.232;2023-08-30T02:31:18;99620.75;;;10.88;100.00
21203;BME280;10759;51.982;9.232;2023-08-30T02:33:48;99636.81;;;11.05;100.00
21203;BME280;10759;51.982;9.232;2023-08-30T02:36:16;99640.53;;;11.03;100.00
21203;BME280;10759;51.982;9.232;2023-08-30T02:38:44;99637.06;;;11.01;100.00
21203;BME280;10759;51.982;9.232;2023-08-30T02:41:14;99635.31;;;11.00;100.00
21203;BME280;10759;51.982;9.232;2023-08-30T02:43:42;99632.16;;;10.91;100.00
21203;BME280;10759;51.982;9.232;2023-08-30T02:46:11;99624.50;;;10.84;100.00
21203;BME280;10759;51.982;9.232;2023-08-30T02:48:39;99627.19;;;10.84;100.00
21203;BME280;10759;51.982;9.232;2023-08-30T02:51:08;99622.75;;;10.83;100.00
21203;BME280;10759;51.982;9.232;2023-08-30T02:53:37;99622.00;;;10.81;100.00
21203;BME280;10759;51.982;9.232;2023-08-30T02:56:05;99586.25;;;10.63;100.00
21203;BME280;10759;51.982;9.232;2023-08-30T02:58:33;99630.09;;;10.79;100.00
21203;BME280;10759;51.982;9.232;2023-08-30T03:01:01;99589.56;;;10.68;100.00
21203;BME280;10759;51.982;9.232;2023-08-30T03:03:30;99622.69;;;11.02;100.00
21203;BME280;10759;51.982;9.232;2023-08-30T03:05:58;99622.16;;;11.12;100.00
21203;BME280;10759;51.982;9.232;2023-08-30T03:08:28;99623.47;;;11.21;100.00
21203;BME280;10759;51.982;9.232;2023-08-30T03:11:06;99617.94;;;11.24;100.00
21203;BME280;10759;51.982;9.232;2023-08-30T03:13:35;99600.69;;;11.30;100.00
21203;BME280;10759;51.982;9.232;2023-08-30T03:16:10;99618.31;;;11.34;100.00
21203;BME280;10759;51.982;9.232;2023-08-30T03:18:39;99622.81;;;11.33;100.00
21203;BME280;10759;51.982;9.232;2023-08-30T03:21:08;99625.03;;;11.43;100.00
21203;BME280;10759;51.982;9.232;2023-08-30T03:23:38;99575.84;;;11.09;100.00
21203;BME280;10759;51.982;9.232;2023-08-30T03:26:09;99629.66;;;11.39;100.00
21203;BME280;10759;51.982;9.232;2023-08-30T03:28:38;99609.91;;;11.24;100.00
21203;BME280;10759;51.982;9.232;2023-08-30T03:31:13;99619.53;;;11.28;100.00
21203;BME280;10759;51.982;9.232;2023-08-30T03:33:42;99599.41;;;11.20;100.00
21203;BME280;10759;51.982;9.232;2023-08-30T03:36:13;99618.28;;;11.18;100.00
21203;BME280;10759;51.982;9.232;2023-08-30T03:38:43;99624.81;;;11.30;100.00
21203;BME280;10759;51.982;9.232;2023-08-30T03:41:11;99625.38;;;11.19;100.00
21203;BME280;10759;51.982;9.232;2023-08-30T03:43:42;99626.09;;;11.05;100.00
21203;BME280;10759;51.982;9.232;2023-08-30T03:46:10;99617.97;;;11.07;100.00
21203;BME280;10759;51.982;9.232;2023-08-30T03:48:39;99616.88;;;11.11;100.00
21203;BME280;10759;51.982;9.232;2023-08-30T03:51:07;99617.16;;;11.05;100.00
21203;BME280;10759;51.982;9.232;2023-08-30T03:53:35;99615.38;;;11.05;100.00
21203;BME280;10759;51.982;9.232;2023-08-30T03:56:05;99609.63;;;10.95;100.00
21203;BME280;10759;51.982;9.232;2023-08-30T03:58:34;99604.97;;;10.82;100.00
21203;BME280;10759;51.982;9.232;2023-08-30T04:01:04;99607.19;;;10.91;100.00
21203;BME280;10759;51.982;9.232;2023-08-30T04:03:34;99581.69;;;11.00;100.00
21203;BME280;10759;51.982;9.232;2023-08-30T04:06:02;99601.44;;;11.32;100.00
21203;BME280;10759;51.982;9.232;2023-08-30T04:08:31;99586.47;;;11.28;100.00
21203;BME280;10759;51.982;9.232;2023-08-30T04:10:59;99600.03;;;11.42;100.00
21203;BME280;10759;51.982;9.232;2023-08-30T04:13:30;99538.00;;;10.98;100.00
21203;BME280;10759;51.982;9.232;2023-08-30T04:15:58;99586.25;;;11.32;100.00
21203;BME280;10759;51.982;9.232;2023-08-30T04:18:26;99594.31;;;11.48;100.00
21203;BME280;10759;51.982;9.232;2023-08-30T04:20:54;99566.09;;;11.41;100.00
21203;BME280;10759;51.982;9.232;2023-08-30T04:23:24;99598.22;;;11.58;100.00
21203;BME280;10759;51.982;9.232;2023-08-30T04:25:53;99592.00;;;11.58;100.00
21203;BME280;10759;51.982;9.232;2023-08-30T04:28:21;99594.28;;;11.32;100.00
21203;BME280;10759;51.982;9.232;2023-08-30T04:30:54;99596.66;;;11.21;100.00
21203;BME280;10759;51.982;9.232;2023-08-30T04:33:23;99569.41;;;11.13;100.00
21203;BME280;10759;51.982;9.232;2023-08-30T04:35:51;99589.44;;;11.39;100.00
21203;BME280;10759;51.982;9.232;2023-08-30T04:38:19;99591.13;;;11.57;100.00
21203;BME280;10759;51.982;9.232;2023-08-30T04:40:47;99600.72;;;11.61;100.00
21203;BME280;10759;51.982;9.232;2023-08-30T04:43:16;99599.56;;;11.67;100.00
21203;BME280;10759;51.982;9.232;2023-08-30T04:45:47;99597.66;;;11.69;100.00
21203;BME280;10759;51.982;9.232;2023-08-30T04:48:17;99600.34;;;11.69;100.00
21203;BME280;10759;51.982;9.232;2023-08-30T04:50:45;99568.72;;;11.58;100.00
21203;BME280;10759;51.982;9.232;2023-08-30T04:53:14;99591.75;;;11.78;100.00
21203;BME280;10759;51.982;9.232;2023-08-30T04:55:42;99602.88;;;11.88;100.00
21203;BME280;10759;51.982;9.232;2023-08-30T04:58:10;99575.66;;;11.78;100.00
21203;BME280;10759;51.982;9.232;2023-08-30T05:00:38;99596.34;;;11.94;100.00
21203;BME280;10759;51.982;9.232;2023-08-30T05:03:07;99600.91;;;11.92;100.00
21203;BME280;10759;51.982;9.232;2023-08-30T05:05:37;99562.25;;;11.78;100.00
21203;BME280;10759;51.982;9.232;2023-08-30T05:08:06;99589.22;;;11.93;100.00
21203;BME280;10759;51.982;9.232;2023-08-30T05:10:35;99586.44;;;11.94;100.00
21203;BME280;10759;51.982;9.232;2023-08-30T05:13:03;99584.56;;;11.96;100.00
21203;BME280;10759;51.982;9.232;2023-08-30T05:15:31;99590.78;;;11.97;100.00
21203;BME280;10759;51.982;9.232;2023-08-30T05:18:01;99583.66;;;11.96;100.00
21203;BME280;10759;51.982;9.232;2023-08-30T05:20:29;99590.44;;;12.03;100.00
21203;BME280;10759;51.982;9.232;2023-08-30T05:22:59;99582.97;;;12.08;100.00
21203;BME280;10759;51.982;9.232;2023-08-30T05:25:27;99581.06;;;12.10;100.00
21203;BME280;10759;51.982;9.232;2023-08-30T05:27:55;99582.63;;;12.14;100.00
21203;BME280;10759;51.982;9.232;2023-08-30T05:30:23;99588.00;;;12.14;100.00
21203;BME280;10759;51.982;9.232;2023-08-30T05:32:54;99589.72;;;12.15;100.00
21203;BME280;10759;51.982;9.232;2023-08-30T05:35:42;99582.47;;;12.17;100.00
21203;BME280;10759;51.982;9.232;2023-08-30T05:38:41;99590.66;;;12.30;100.00
21203;BME280;10759;51.982;9.232;2023-08-30T05:41:21;99562.63;;;12.20;100.00
21203;BME280;10759;51.982;9.232;2023-08-30T05:43:51;99577.94;;;12.34;100.00
21203;BME280;10759;51.982;9.232;2023-08-30T05:46:20;99576.63;;;12.41;100.00
21203;BME280;10759;51.982;9.232;2023-08-30T05:48:48;99556.97;;;12.40;100.00
21203;BME280;10759;51.982;9.232;2023-08-30T05:51:17;99574.94;;;12.54;100.00
21203;BME280;10759;51.982;9.232;2023-08-30T05:53:48;99567.91;;;12.67;100.00
21203;BME280;10759;51.982;9.232;2023-08-30T05:56:16;99566.25;;;12.65;100.00
21203;BME280;10759;51.982;9.232;2023-08-30T05:58:45;99552.94;;;12.48;100.00
21203;BME280;10759;51.982;9.232;2023-08-30T06:01:13;99569.97;;;12.62;100.00
21203;BME280;10759;51.982;9.232;2023-08-30T06:03:41;99569.56;;;12.54;100.00
21203;BME280;10759;51.982;9.232;2023-08-30T06:06:09;99560.59;;;12.55;100.00
21203;BME280;10759;51.982;9.232;2023-08-30T06:08:37;99571.72;;;12.63;100.00
21203;BME280;10759;51.982;9.232;2023-08-30T06:11:08;99565.56;;;12.61;100.00
21203;BME280;10759;51.982;9.232;2023-08-30T06:13:36;99538.69;;;12.61;100.00
21203;BME280;10759;51.982;9.232;2023-08-30T06:16:04;99557.59;;;12.60;100.00
21203;BME280;10759;51.982;9.232;2023-08-30T06:18:32;99560.91;;;12.49;100.00
21203;BME280;10759;51.982;9.232;2023-08-30T06:21:00;99555.09;;;12.57;100.00
21203;BME280;10759;51.982;9.232;2023-08-30T06:23:30;99563.47;;;12.66;100.00
21203;BME280;10759;51.982;9.232;2023-08-30T06:25:58;99556.28;;;12.67;100.00
21203;BME280;10759;51.982;9.232;2023-08-30T06:28:29;99554.09;;;12.74;100.00
21203;BME280;10759;51.982;9.232;2023-08-30T06:30:57;99515.63;;;12.57;100.00
21203;BME280;10759;51.982;9.232;2023-08-30T06:33:25;99531.41;;;12.63;100.00
21203;BME280;10759;51.982;9.232;2023-08-30T06:35:53;99556.03;;;12.86;100.00
21203;BME280;10759;51.982;9.232;2023-08-30T06:38:23;99558.84;;;12.99;100.00
21203;BME280;10759;51.982;9.232;2023-08-30T06:40:51;99560.44;;;13.17;100.00
21203;BME280;10759;51.982;9.232;2023-08-30T06:43:20;99563.00;;;13.04;100.00
21203;BME280;10759;51.982;9.232;2023-08-30T06:45:50;99484.09;;;12.61;100.00
21203;BME280;10759;51.982;9.232;2023-08-30T06:48:19;99553.75;;;12.80;100.00
21203;BME280;10759;51.982;9.232;2023-08-30T06:50:48;99527.91;;;12.47;100.00
21203;BME280;10759;51.982;9.232;2023-08-30T06:53:17;99554.81;;;12.61;100.00
21203;BME280;10759;51.982;9.232;2023-08-30T06:55:45;99553.63;;;12.51;100.00
21203;BME280;10759;51.982;9.232;2023-08-30T06:58:15;99530.09;;;12.40;100.00
21203;BME280;10759;51.982;9.232;2023-08-30T07:00:43;99559.22;;;12.62;100.00
21203;BME280;10759;51.982;9.232;2023-08-30T07:03:12;99550.75;;;12.84;100.00
21203;BME280;10759;51.982;9.232;2023-08-30T07:05:41;99560.00;;;13.09;100.00
21203;BME280;10759;51.982;9.232;2023-08-30T07:08:10;99557.63;;;13.19;100.00
21203;BME280;10759;51.982;9.232;2023-08-30T07:10:39;99552.50;;;13.44;100.00
21203;BME280;10759;51.982;9.232;2023-08-30T07:13:07;99553.25;;;13.61;100.00
21203;BME280;10759;51.982;9.232;2023-08-30T07:15:38;99547.44;;;13.95;100.00
21203;BME280;10759;51.982;9.232;2023-08-30T07:18:06;99528.91;;;14.18;100.00
21203;BME280;10759;51.982;9.232;2023-08-30T07:20:38;99527.13;;;14.44;100.00
21203;BME280;10759;51.982;9.232;2023-08-30T07:23:07;99540.00;;;14.80;100.00
21203;BME280;10759;51.982;9.232;2023-08-30T07:25:38;99542.06;;;14.90;100.00
21203;BME280;10759;51.982;9.232;2023-08-30T07:28:06;99539.81;;;15.09;100.00
21203;BME280;10759;51.982;9.232;2023-08-30T07:30:35;99528.38;;;15.31;100.00
21203;BME280;10759;51.982;9.232;2023-08-30T07:33:06;99531.69;;;15.60;100.00
21203;BME280;10759;51.982;9.232;2023-08-30T07:35:37;99532.88;;;15.56;100.00
21203;BME280;10759;51.982;9.232;2023-08-30T07:38:06;99516.44;;;15.72;100.00
21203;BME280;10759;51.982;9.232;2023-08-30T07:40:35;99514.16;;;15.79;100.00
21203;BME280;10759;51.982;9.232;2023-08-30T07:43:03;99518.97;;;15.37;100.00
21203;BME280;10759;51.982;9.232;2023-08-30T07:45:32;99505.59;;;15.22;100.00
21203;BME280;10759;51.982;9.232;2023-08-30T07:48:01;99519.56;;;15.79;100.00
21203;BME280;10759;51.982;9.232;2023-08-30T07:50:29;99524.94;;;15.92;100.00
21203;BME280;10759;51.982;9.232;2023-08-30T07:53:00;99513.34;;;16.02;100.00
21203;BME280;10759;51.982;9.232;2023-08-30T07:55:29;99509.41;;;16.06;100.00
21203;BME280;10759;51.982;9.232;2023-08-30T07:57:58;99508.66;;;16.04;100.00
21203;BME280;10759;51.982;9.232;2023-08-30T08:00:26;99503.72;;;15.98;100.00
21203;BME280;10759;51.982;9.232;2023-08-30T08:02:54;99506.66;;;16.43;100.00
21203;BME280;10759;51.982;9.232;2023-08-30T08:05:22;99463.41;;;16.19;100.00
21203;BME280;10759;51.982;9.232;2023-08-30T08:07:52;99508.91;;;16.49;100.00
21203;BME280;10759;51.982;9.232;2023-08-30T08:10:22;99512.13;;;16.55;100.00
21203;BME280;10759;51.982;9.232;2023-08-30T08:12:52;99509.28;;;16.80;100.00
21203;BME280;10759;51.982;9.232;2023-08-30T08:15:25;99508.31;;;16.81;100.00
21203;BME280;10759;51.982;9.232;2023-08-30T08:17:53;99516.84;;;16.75;100.00
21203;BME280;10759;51.982;9.232;2023-08-30T08:20:22;99509.78;;;16.85;100.00
21203;BME280;10759;51.982;9.232;2023-08-30T08:22:53;99519.28;;;16.91;100.00
21203;BME280;10759;51.982;9.232;2023-08-30T08:25:22;99514.69;;;16.80;100.00
21203;BME280;10759;51.982;9.232;2023-08-30T08:27:51;99507.22;;;16.71;100.00
21203;BME280;10759;51.982;9.232;2023-08-30T08:30:19;99505.06;;;16.76;100.00
21203;BME280;10759;51.982;9.232;2023-08-30T08:32:47;99504.47;;;16.48;100.00
21203;BME280;10759;51.982;9.232;2023-08-30T08:35:15;99502.47;;;16.74;100.00
21203;BME280;10759;51.982;9.232;2023-08-30T08:37:44;99477.69;;;16.92;100.00
21203;BME280;10759;51.982;9.232;2023-08-30T08:40:12;99497.31;;;17.18;100.00
21203;BME280;10759;51.982;9.232;2023-08-30T08:42:48;99500.38;;;17.47;100.00
21203;BME280;10759;51.982;9.232;2023-08-30T08:45:19;99477.50;;;17.40;100.00
21203;BME280;10759;51.982;9.232;2023-08-30T08:47:48;99498.53;;;17.70;100.00
21203;BME280;10759;51.982;9.232;2023-08-30T08:50:18;99475.75;;;17.62;100.00
21203;BME280;10759;51.982;9.232;2023-08-30T08:52:47;99497.66;;;17.92;100.00
21203;BME280;10759;51.982;9.232;2023-08-30T08:55:26;99494.84;;;17.83;100.00
21203;BME280;10759;51.982;9.232;2023-08-30T08:57:58;99485.34;;;17.88;100.00
21203;BME280;10759;51.982;9.232;2023-08-30T09:00:30;99492.66;;;18.09;100.00
21203;BME280;10759;51.982;9.232;2023-08-30T09:02:59;99487.81;;;18.23;100.00
21203;BME280;10759;51.982;9.232;2023-08-30T09:05:29;99479.66;;;18.35;100.00
21203;BME280;10759;51.982;9.232;2023-08-30T09:07:58;99482.75;;;18.30;100.00
21203;BME280;10759;51.982;9.232;2023-08-30T09:10:26;99473.66;;;18.20;99.29
21203;BME280;10759;51.982;9.232;2023-08-30T09:12:54;99471.94;;;18.51;100.00
21203;BME280;10759;51.982;9.232;2023-08-30T09:15:31;99474.94;;;18.69;97.71
21203;BME280;10759;51.982;9.232;2023-08-30T09:18:00;99485.59;;;18.82;95.22
21203;BME280;10759;51.982;9.232;2023-08-30T09:20:28;99464.94;;;18.70;96.53
21203;BME280;10759;51.982;9.232;2023-08-30T09:22:57;99482.78;;;18.72;98.47
21203;BME280;10759;51.982;9.232;2023-08-30T09:25:26;99485.78;;;18.90;97.33
21203;BME280;10759;51.982;9.232;2023-08-30T09:27:57;99476.56;;;18.93;93.46
21203;BME280;10759;51.982;9.232;2023-08-30T09:30:26;99405.31;;;18.58;95.71
21203;BME280;10759;51.982;9.232;2023-08-30T09:33:00;99476.41;;;18.94;91.45
21203;BME280;10759;51.982;9.232;2023-08-30T09:35:29;99457.97;;;18.88;91.92
21203;BME280;10759;51.982;9.232;2023-08-30T09:37:57;99461.34;;;19.11;91.63
21203;BME280;10759;51.982;9.232;2023-08-30T09:40:25;99460.34;;;19.12;92.55
21203;BME280;10759;51.982;9.232;2023-08-30T09:42:54;99439.63;;;19.11;91.13
21203;BME280;10759;51.982;9.232;2023-08-30T09:45:38;99441.03;;;19.05;87.95
21203;BME280;10759;51.982;9.232;2023-08-30T09:48:08;99461.47;;;18.79;90.05
21203;BME280;10759;51.982;9.232;2023-08-30T09:50:36;99424.50;;;18.66;91.09
21203;BME280;10759;51.982;9.232;2023-08-30T09:53:07;99439.47;;;18.82;92.22
21203;BME280;10759;51.982;9.232;2023-08-30T09:55:37;99458.31;;;19.04;89.19
21203;BME280;10759;51.982;9.232;2023-08-30T09:58:06;99437.94;;;18.89;90.15
21203;BME280;10759;51.982;9.232;2023-08-30T10:00:34;99445.56;;;18.95;91.30
21203;BME280;10759;51.982;9.232;2023-08-30T10:03:03;99450.38;;;18.92;85.66
21203;BME280;10759;51.982;9.232;2023-08-30T10:05:37;99417.00;;;19.01;88.05
21203;BME280;10759;51.982;9.232;2023-08-30T10:08:07;99446.75;;;19.33;82.85
21203;BME280;10759;51.982;9.232;2023-08-30T10:10:36;99444.78;;;19.45;81.03
21203;BME280;10759;51.982;9.232;2023-08-30T10:13:06;99366.16;;;19.03;82.12
21203;BME280;10759;51.982;9.232;2023-08-30T10:15:43;99434.47;;;19.79;81.41
21203;BME280;10759;51.982;9.232;2023-08-30T10:18:15;99412.03;;;19.46;78.25
21203;BME280;10759;51.982;9.232;2023-08-30T10:20:49;99433.31;;;19.41;78.40
21203;BME280;10759;51.982;9.232;2023-08-30T10:23:21;99441.47;;;19.72;81.47
21203;BME280;10759;51.982;9.232;2023-08-30T10:25:52;99437.06;;;20.00;83.67
21203;BME280;10759;51.982;9.232;2023-08-30T10:28:22;99443.13;;;20.23;81.22
21203;BME280;10759;51.982;9.232;2023-08-30T10:30:51;99341.66;;;19.74;79.09
21203;BME280;10759;51.982;9.232;2023-08-30T10:33:20;99436.66;;;20.34;79.67
21203;BME280;10759;51.982;9.232;2023-08-30T10:36:04;99423.91;;;20.15;80.93
21203;BME280;10759;51.982;9.232;2023-08-30T10:38:33;99419.91;;;20.29;80.69
21203;BME280;10759;51.982;9.232;2023-08-30T10:41:06;99423.38;;;20.41;83.22
21203;BME280;10759;51.982;9.232;2023-08-30T10:43:36;99425.06;;;20.42;78.62
21203;BME280;10759;51.982;9.232;2023-08-30T10:46:06;99428.22;;;20.47;81.58
21203;BME280;10759;51.982;9.232;2023-08-30T10:48:36;99423.91;;;20.44;79.48
21203;BME280;10759;51.982;9.232;2023-08-30T10:51:19;99423.81;;;20.55;80.75
21203;BME280;10759;51.982;9.232;2023-08-30T10:53:57;99415.63;;;20.65;79.67
21203;BME280;10759;51.982;9.232;2023-08-30T10:56:29;99416.59;;;20.45;77.97
21203;BME280;10759;51.982;9.232;2023-08-30T10:58:57;99366.81;;;20.15;79.16
21203;BME280;10759;51.982;9.232;2023-08-30T11:01:27;99401.88;;;20.57;80.61
21203;BME280;10759;51.982;9.232;2023-08-30T11:03:55;99394.13;;;20.33;81.25
21203;BME280;10759;51.982;9.232;2023-08-30T11:06:42;99399.00;;;20.49;80.82
21203;BME280;10759;51.982;9.232;2023-08-30T11:09:12;99394.72;;;20.07;79.41
21203;BME280;10759;51.982;9.232;2023-08-30T11:11:42;99391.88;;;19.99;80.52
21203;BME280;10759;51.982;9.232;2023-08-30T11:14:10;99367.50;;;19.78;80.69
21203;BME280;10759;51.982;9.232;2023-08-30T11:16:39;99385.56;;;19.79;84.04
21203;BME280;10759;51.982;9.232;2023-08-30T11:19:09;99385.41;;;19.81;77.66
21203;BME280;10759;51.982;9.232;2023-08-30T11:21:38;99379.25;;;20.08;80.02
21203;BME280;10759;51.982;9.232;2023-08-30T11:24:09;99380.81;;;20.59;77.43
21203;BME280;10759;51.982;9.232;2023-08-30T11:26:38;99377.75;;;20.82;76.93
21203;BME280;10759;51.982;9.232;2023-08-30T11:29:07;99379.13;;;21.05;75.33
21203;BME280;10759;51.982;9.232;2023-08-30T11:31:35;99354.28;;;20.71;75.79
21203;BME280;10759;51.982;9.232;2023-08-30T11:34:04;99343.75;;;20.58;77.30
21203;BME280;10759;51.982;9.232;2023-08-30T11:36:35;99368.94;;;20.60;77.50
21203;BME280;10759;51.982;9.232;2023-08-30T11:39:04;99353.47;;;20.51;78.70
21203;BME280;10759;51.982;9.232;2023-08-30T11:41:34;99360.56;;;20.81;80.90
21203;BME280;10759;51.982;9.232;2023-08-30T11:44:05;99355.41;;;20.88;78.09
21203;BME280;10759;51.982;9.232;2023-08-30T11:46:35;99353.44;;;21.08;80.34
21203;BME280;10759;51.982;9.232;2023-08-30T11:49:05;99351.63;;;20.98;78.67
21203;BME280;10759;51.982;9.232;2023-08-30T11:51:33;99324.06;;;21.01;78.19
21203;BME280;10759;51.982;9.232;2023-08-30T11:54:02;99338.75;;;21.18;78.59
21203;BME280;10759;51.982;9.232;2023-08-30T11:56:31;99295.41;;;21.07;76.85
21203;BME280;10759;51.982;9.232;2023-08-30T11:59:00;99308.25;;;21.15;76.09
21203;BME280;10759;51.982;9.232;2023-08-30T12:01:29;99327.31;;;20.87;75.51
21203;BME280;10759;51.982;9.232;2023-08-30T12:03:57;99331.66;;;20.70;77.09
21203;BME280;10759;51.982;9.232;2023-08-30T12:06:25;99332.50;;;20.80;78.20
21203;BME280;10759;51.982;9.232;2023-08-30T12:08:57;99318.16;;;20.78;77.97
21203;BME280;10759;51.982;9.232;2023-08-30T12:11:26;99309.28;;;20.76;76.93
21203;BME280;10759;51.982;9.232;2023-08-30T12:14:02;99322.19;;;20.74;76.64
21203;BME280;10759;51.982;9.232;2023-08-30T12:16:31;99313.78;;;20.68;79.99
21203;BME280;10759;51.982;9.232;2023-08-30T12:19:08;99316.53;;;20.58;78.99
21203;BME280;10759;51.982;9.232;2023-08-30T12:21:41;99315.06;;;20.54;76.46
21203;BME280;10759;51.982;9.232;2023-08-30T12:24:09;99316.53;;;20.58;77.55
21203;BME280;10759;51.982;9.232;2023-08-30T12:26:38;99312.06;;;20.57;76.43
21203;BME280;10759;51.982;9.232;2023-08-30T12:29:07;99309.50;;;20.46;75.94
21203;BME280;10759;51.982;9.232;2023-08-30T12:31:35;99314.94;;;20.46;76.82
21203;BME280;10759;51.982;9.232;2023-08-30T12:34:04;99293.03;;;20.47;76.06
21203;BME280;10759;51.982;9.232;2023-08-30T12:36:32;99295.31;;;20.52;75.83
21203;BME280;10759;51.982;9.232;2023-08-30T12:39:00;99312.00;;;20.76;77.20
21203;BME280;10759;51.982;9.232;2023-08-30T12:41:29;99301.53;;;20.82;77.01
21203;BME280;10759;51.982;9.232;2023-08-30T12:43:58;99304.50;;;20.61;75.98
21203;BME280;10759;51.982;9.232;2023-08-30T12:46:27;99289.72;;;20.63;75.63
21203;BME280;10759;51.982;9.232;2023-08-30T12:48:56;99276.50;;;20.78;75.42
21203;BME280;10759;51.982;9.232;2023-08-30T12:51:26;99271.91;;;20.78;75.78
21203;BME280;10759;51.982;9.232;2023-08-30T12:53:53;99256.69;;;20.38;79.35
21203;BME280;10759;51.982;9.232;2023-08-30T12:56:21;99281.63;;;20.34;81.15
21203;BME280;10759;51.982;9.232;2023-08-30T12:58:50;99281.47;;;20.35;80.10
21203;BME280;10759;51.982;9.232;2023-08-30T13:01:19;99275.34;;;20.24;76.58
21203;BME280;10759;51.982;9.232;2023-08-30T13:03:49;99267.31;;;20.22;78.04
21203;BME280;10759;51.982;9.232;2023-08-30T13:06:17;99272.31;;;20.36;77.65